Meath Environmental Platform

Observations

Time Sensor AQI SAQ Temp °C Hum % Pres Pa CO μg/m³ H₂S μg/m³ NO μg/m³ NO₂ μg/m³ O₃ μg/m³ SO₂ μg/m³ CO₂e PPM VOC PPM PM1 μg/m³ PM2.5 μg/m³ PM4 μg/m³ PM10 μg/m³ TPS µm
Tuesday 11 August 2026
13:54 Trim Patrick St 2 32.9 25 69,448 0 0 0.71 11.05 83.44 15.17 2 8.82 9.7
13:54 Trim Market St 2 39.9 17 67,035 0 0 0.06 14.21 87.04 4.86 0 3.85 4.24
13:53 Trim Patrick St 2 32.9 24 69,454 0 0 0.71 13.33 87.34 15.57 2 8.86 9.74
13:53 Trim Market St 2 39.8 18 67,009 0 0 0.07 15.17 114.42 4.91 0 3.84 4.22
13:52 Trim Patrick St 2 32.8 25 69,428 0 0 0.86 11.58 70.46 14.13 2.86 8.81 9.69
13:52 Trim Market St 2 39.7 18 67,011 0 0 0.08 15.9 123.62 2.92 0 3.84 4.22
13:51 Trim Patrick St 2 32.7 26 69,426 0 0 0.82 12.44 59.51 13.53 2 7.95 8.74
13:51 Trim Market St 2 39.6 18 66,971 0 0 0.1 12.69 82.02 4.25 0 3.84 4.23
13:50 Trim Patrick St 2 32.7 26 69,420 0 0 0.91 12.13 93.79 18.26 2 8.76 9.64
13:50 Trim Market St 2 39.5 18 66,955 0 0 0.13 18.63 68.13 1.84 0 4.4 4.84
13:49 Trim Patrick St 2 32.6 25 69,414 0 0 0.98 21.76 132.32 17.07 2 8 8.8
13:49 Trim Market St 2 39.5 18 66,937 0 0 0.14 13.18 81.96 4.86 0 3.27 3.6
13:48 Trim Patrick St 2 32.6 27 69,408 0 0 0.85 8.12 68.63 16.27 2 7.86 8.65
13:48 Trim Market St 2 39.4 18 66,945 0 0 0.2 14.94 93.78 4.67 0 3.26 3.59
13:47 Trim Patrick St 2 32.6 27 69,404 0 0 0.82 12.29 117.42 15.8 2.86 8.69 9.56
13:47 Trim Market St 2 39.3 18 66,955 0 0 0.24 15.49 91.84 3.52 0.71 4.39 4.83
13:46 Trim Patrick St 2 32.5 26 69,397 0 0 0.92 4.96 77.67 16.44 2 7.95 8.75
13:45 Trim Patrick St 2 32.5 26 69,389 0 0 0.81 7.93 49.61 12.98 2.86 9.52 10.47
13:44 Trim Patrick St 2 32.5 27 69,404 0 0 0.75 7.71 75.83 16.47 2.86 8.65 9.51
13:43 Trim Patrick St 2 32.4 25 69,397 0 0 0.87 12.17 87.31 14.74 2 7.97 8.76